Time;durP1;ratioP1;P1;durP2;ratioP2;P2;SDS_P1;SDS_P2;PMS_P1;PMS_P2;Temp;Humidity;BMP_temperature;BMP_pressure;BME280_temperature;BME280_humidity;BME280_pressure;Samples;Min_cycle;Max_cycle;Signal;HPM_P1;HPM_P2
2023/02/03 00:00:22;;;;;;;19.02;9.45;;;10.30;99.90;;;;;;5006136;28;20109;-83
2023/02/03 00:02:48;;;;;;;22.35;9.98;;;10.30;99.90;;;;;;5007766;28;20426;-75
2023/02/03 00:05:13;;;;;;;22.27;9.82;;;10.30;99.90;;;;;;5004983;28;20026;-82
2023/02/03 00:07:40;;;;;;;20.92;8.80;;;10.30;99.90;;;;;;5003884;28;20030;-83
2023/02/03 00:10:06;;;;;;;14.02;9.05;;;10.40;99.90;;;;;;5001652;28;20022;-84
2023/02/03 00:12:33;;;;;;;18.02;8.90;;;10.50;99.90;;;;;;5004355;28;20087;-82
2023/02/03 00:14:59;;;;;;;18.13;8.98;;;10.30;99.90;;;;;;5005605;28;20422;-83
2023/02/03 00:17:24;;;;;;;17.38;9.77;;;10.40;99.90;;;;;;5001208;28;20160;-82
2023/02/03 00:19:50;;;;;;;23.02;10.32;;;10.30;99.90;;;;;;4999165;28;20076;-83
2023/02/03 00:22:15;;;;;;;17.85;8.98;;;10.30;99.90;;;;;;5006763;28;20498;-83
2023/02/03 00:24:41;;;;;;;16.25;9.73;;;10.30;99.90;;;;;;5003230;28;20196;-78
2023/02/03 00:27:09;;;;;;;18.38;8.80;;;10.30;99.90;;;;;;5004389;28;20105;-84
2023/02/03 00:29:34;;;;;;;15.00;9.18;;;10.30;99.90;;;;;;5002671;28;20566;-79
2023/02/03 00:32:00;;;;;;;22.55;9.63;;;10.30;99.90;;;;;;5006490;28;20069;-82
2023/02/03 00:34:29;;;;;;;16.15;8.50;;;10.30;99.90;;;;;;5004206;28;20027;-83
2023/02/03 00:36:56;;;;;;;18.42;8.13;;;10.20;99.90;;;;;;5004740;28;20095;-83
2023/02/03 00:39:21;;;;;;;16.13;7.93;;;10.30;99.90;;;;;;5005466;28;20022;-82
2023/02/03 00:41:47;;;;;;;18.02;7.15;;;10.30;99.90;;;;;;4999583;28;20501;-79
2023/02/03 00:44:13;;;;;;;15.00;7.03;;;10.30;99.90;;;;;;5003965;28;20736;-82
2023/02/03 00:46:39;;;;;;;14.07;6.55;;;10.40;99.90;;;;;;5003281;28;20083;-82
2023/02/03 00:49:05;;;;;;;14.27;6.70;;;10.40;99.90;;;;;;5005992;28;20033;-82
2023/02/03 00:51:33;;;;;;;13.02;5.85;;;10.30;99.90;;;;;;5005988;28;20026;-83
2023/02/03 00:53:58;;;;;;;11.20;5.57;;;10.30;99.90;;;;;;5005056;28;20104;-82
2023/02/03 00:56:24;;;;;;;13.68;5.38;;;10.30;99.90;;;;;;5010250;28;20112;-83
2023/02/03 00:58:50;;;;;;;13.38;4.90;;;10.40;99.90;;;;;;5007434;28;20026;-82
2023/02/03 01:01:15;;;;;;;11.65;4.93;;;10.20;99.90;;;;;;5002368;28;20018;-82
2023/02/03 01:03:41;;;;;;;14.65;4.38;;;10.30;99.90;;;;;;5006714;28;20386;-82
2023/02/03 01:06:18;;;;;;;16.27;5.60;;;10.20;99.90;;;;;;5003735;28;20029;-81
2023/02/03 01:08:45;;;;;;;11.02;4.53;;;10.30;99.90;;;;;;5006554;28;20013;-82
2023/02/03 01:11:16;;;;;;;12.02;4.63;;;10.40;99.90;;;;;;5009540;28;20041;-81
2023/02/03 01:13:42;;;;;;;13.48;4.45;;;10.30;99.90;;;;;;5004728;28;20019;-76
2023/02/03 01:16:13;;;;;;;12.05;4.35;;;10.30;99.90;;;;;;5005794;28;20714;-83
2023/02/03 01:18:40;;;;;;;14.43;4.43;;;10.40;99.90;;;;;;5025363;28;20022;-83
2023/02/03 01:21:08;;;;;;;10.45;4.43;;;10.50;99.90;;;;;;5003755;28;20026;-83
2023/02/03 01:23:35;;;;;;;11.18;4.25;;;10.40;99.90;;;;;;5004596;28;20029;-81
2023/02/03 01:26:05;;;;;;;10.80;3.63;;;10.40;99.90;;;;;;5003272;28;20402;-82
2023/02/03 01:28:31;;;;;;;12.20;4.38;;;10.40;99.90;;;;;;5005571;28;20037;-82
2023/02/03 01:30:57;;;;;;;11.15;4.07;;;10.40;99.90;;;;;;5003900;28;20022;-82
2023/02/03 01:33:22;;;;;;;8.75;4.15;;;10.40;99.90;;;;;;5004803;28;20034;-76
2023/02/03 01:35:48;;;;;;;7.88;4.10;;;10.50;99.90;;;;;;5005075;28;20045;-82
2023/02/03 01:38:15;;;;;;;14.85;4.32;;;10.40;99.90;;;;;;5008626;28;20475;-81
2023/02/03 01:40:43;;;;;;;9.38;4.40;;;10.40;99.90;;;;;;5005108;28;20034;-83
2023/02/03 01:43:10;;;;;;;13.10;3.88;;;10.30;99.90;;;;;;5004534;28;20113;-80
2023/02/03 01:45:37;;;;;;;15.75;4.47;;;10.40;99.90;;;;;;5003612;28;20457;-82
2023/02/03 01:48:03;;;;;;;8.00;3.58;;;10.40;99.90;;;;;;5005790;28;20083;-79
2023/02/03 01:50:31;;;;;;;10.77;3.70;;;10.40;99.90;;;;;;5025838;28;20029;-83
2023/02/03 01:53:03;;;;;;;12.20;4.05;;;10.40;99.90;;;;;;5008530;28;20418;-76
2023/02/03 01:55:39;;;;;;;10.48;4.45;;;10.50;99.90;;;;;;5004589;28;20018;-82
2023/02/03 01:58:18;;;;;;;10.80;5.00;;;10.40;99.90;;;;;;5008072;28;20038;-81
2023/02/03 02:00:45;;;;;;;8.50;4.28;;;10.30;99.90;;;;;;5004357;28;20041;-82
2023/02/03 02:03:11;;;;;;;14.45;5.47;;;10.40;99.90;;;;;;5004716;28;20161;-80
2023/02/03 02:05:45;;;;;;;10.63;4.30;;;10.40;99.90;;;;;;5006069;28;20038;-83
2023/02/03 02:08:12;;;;;;;14.10;4.90;;;10.40;99.90;;;;;;5006742;28;20095;-83
2023/02/03 02:10:38;;;;;;;14.98;4.63;;;10.40;99.90;;;;;;5006264;28;21274;-82
2023/02/03 02:13:05;;;;;;;11.85;5.15;;;10.30;99.90;;;;;;5007549;28;20018;-84
2023/02/03 02:15:49;;;;;;;12.93;5.13;;;10.30;99.90;;;;;;5006922;28;20037;-82
2023/02/03 02:18:14;;;;;;;13.38;4.72;;;10.30;99.90;;;;;;5006165;28;20025;-80
2023/02/03 02:21:01;;;;;;;14.23;5.28;;;10.40;99.90;;;;;;4999875;28;20033;-78
2023/02/03 02:24:02;;;;;;;10.18;4.53;;;10.30;99.90;;;;;;5007093;28;20524;-82
2023/02/03 02:26:44;;;;;;;13.13;5.20;;;10.40;99.90;;;;;;5000933;28;20030;-82
2023/02/03 02:29:46;;;;;;;11.90;4.90;;;10.30;99.90;;;;;;5007888;28;20490;-81
2023/02/03 02:32:31;;;;;;;16.83;5.53;;;10.40;99.90;;;;;;5003197;28;20090;-81
2023/02/03 02:35:18;;;;;;;13.05;5.60;;;10.40;99.90;;;;;;5007316;28;20033;-73
2023/02/03 02:38:01;;;;;;;12.88;4.63;;;10.40;99.90;;;;;;5002719;28;20038;-84
2023/02/03 02:40:47;;;;;;;12.48;4.05;;;10.40;99.90;;;;;;5005721;28;20101;-84
2023/02/03 02:43:26;;;;;;;13.27;5.53;;;10.30;99.90;;;;;;5005489;28;20029;-84
2023/02/03 02:45:56;;;;;;;10.15;4.80;;;10.40;99.90;;;;;;5000046;28;20037;-84
2023/02/03 02:48:42;;;;;;;11.88;4.20;;;10.30;99.90;;;;;;5005590;28;20026;-83
2023/02/03 02:51:11;;;;;;;14.90;4.40;;;10.40;99.90;;;;;;5007776;28;20049;-84
2023/02/03 02:53:45;;;;;;;13.48;4.38;;;10.40;99.90;;;;;;5004151;28;20104;-83
2023/02/03 02:56:13;;;;;;;16.15;4.20;;;10.50;99.90;;;;;;5001765;28;20454;-83
2023/02/03 02:58:41;;;;;;;15.10;3.97;;;10.40;99.90;;;;;;5005557;28;20029;-83
2023/02/03 03:01:08;;;;;;;12.48;4.00;;;10.40;99.90;;;;;;5002364;28;20029;-83
2023/02/03 03:03:34;;;;;;;12.80;4.07;;;10.40;99.90;;;;;;5007565;28;20038;-80
2023/02/03 03:06:08;;;;;;;9.55;3.85;;;10.30;99.90;;;;;;5006053;28;20018;-79
2023/02/03 03:08:59;;;;;;;15.10;3.83;;;10.30;99.90;;;;;;5002665;28;20140;-83
2023/02/03 03:11:30;;;;;;;9.30;3.92;;;10.30;99.90;;;;;;5004568;28;20025;-84
2023/02/03 03:13:56;;;;;;;13.00;4.38;;;10.30;99.90;;;;;;5005536;28;20017;-83
2023/02/03 03:16:25;;;;;;;13.77;3.65;;;10.40;99.90;;;;;;5007899;28;20041;-84
2023/02/03 03:19:05;;;;;;;9.63;3.20;;;10.40;99.90;;;;;;5003013;28;20092;-84
2023/02/03 03:21:36;;;;;;;9.85;4.03;;;10.30;99.90;;;;;;5006010;28;20040;-83
2023/02/03 03:24:08;;;;;;;10.32;3.83;;;10.40;99.90;;;;;;5005303;28;20475;-84
2023/02/03 03:26:40;;;;;;;10.00;3.55;;;10.40;99.90;;;;;;5003490;28;20151;-83
2023/02/03 03:29:11;;;;;;;12.17;3.30;;;10.40;99.90;;;;;;5005631;28;20782;-83
2023/02/03 03:31:38;;;;;;;9.13;3.33;;;10.40;99.90;;;;;;5002066;28;20026;-83
2023/02/03 03:34:04;;;;;;;9.65;3.28;;;10.40;99.90;;;;;;5007419;28;20231;-81
2023/02/03 03:36:39;;;;;;;10.85;2.97;;;10.40;99.90;;;;;;5005832;28;20537;-82
2023/02/03 03:39:19;;;;;;;11.30;3.25;;;10.40;99.90;;;;;;5007578;28;20045;-83
2023/02/03 03:41:50;;;;;;;9.43;3.30;;;10.30;99.90;;;;;;5000802;28;20044;-80
2023/02/03 03:44:20;;;;;;;9.98;2.92;;;10.30;99.90;;;;;;5004944;28;20495;-84
2023/02/03 03:46:54;;;;;;;9.65;3.25;;;10.40;99.90;;;;;;5004775;28;20026;-82
2023/02/03 03:49:22;;;;;;;8.60;3.45;;;10.30;99.90;;;;;;4999459;28;20053;-80
2023/02/03 03:51:56;;;;;;;10.77;3.60;;;10.40;99.90;;;;;;5009049;28;20026;-81
2023/02/03 03:54:24;;;;;;;10.45;3.00;;;10.40;99.90;;;;;;5007716;28;20146;-83
2023/02/03 03:56:58;;;;;;;9.57;3.10;;;10.30;99.90;;;;;;5008925;28;20049;-84
2023/02/03 03:59:27;;;;;;;11.23;3.20;;;10.30;99.90;;;;;;5008611;28;20536;-82
2023/02/03 04:01:54;;;;;;;12.52;2.88;;;10.30;99.90;;;;;;5008144;28;20064;-83
2023/02/03 04:04:21;;;;;;;8.68;3.22;;;10.30;99.90;;;;;;5013662;28;20482;-80
2023/02/03 04:06:47;;;;;;;9.88;3.00;;;10.40;99.90;;;;;;5009223;28;20037;-79
2023/02/03 04:09:13;;;;;;;14.68;3.60;;;10.40;99.90;;;;;;5007096;28;20061;-82
2023/02/03 04:14:22;;;;;;;9.40;3.15;;;10.30;99.90;;;;;;5002342;28;20042;-83
2023/02/03 04:16:48;;;;;;;8.57;2.97;;;10.30;99.90;;;;;;5010669;28;20045;-83
2023/02/03 04:19:13;;;;;;;8.65;3.10;;;10.30;99.90;;;;;;5005466;28;20026;-82
2023/02/03 04:21:39;;;;;;;8.05;2.88;;;10.30;99.90;;;;;;5008000;28;20108;-82
2023/02/03 04:24:05;;;;;;;12.05;2.88;;;10.30;99.90;;;;;;5009410;28;20018;-83
2023/02/03 04:26:30;;;;;;;14.05;3.28;;;10.40;99.90;;;;;;5008976;28;20665;-78
2023/02/03 04:28:56;;;;;;;9.50;3.05;;;10.40;99.90;;;;;;5011388;28;20022;-83
2023/02/03 04:31:22;;;;;;;13.50;3.55;;;10.40;99.90;;;;;;5013184;28;20026;-79
2023/02/03 04:33:47;;;;;;;11.02;3.53;;;10.30;99.90;;;;;;5011282;28;20513;-82
2023/02/03 04:36:14;;;;;;;9.73;2.88;;;10.40;99.90;;;;;;5014231;28;20045;-82
2023/02/03 04:38:39;;;;;;;13.07;3.55;;;10.40;99.90;;;;;;5008141;28;20026;-80
2023/02/03 04:41:05;;;;;;;14.85;3.80;;;10.40;99.90;;;;;;5013446;28;20476;-83
2023/02/03 04:43:30;;;;;;;11.32;3.33;;;10.40;99.90;;;;;;5007331;28;20076;-82
2023/02/03 04:45:59;;;;;;;11.60;2.70;;;10.40;99.90;;;;;;5013828;28;20028;-85
2023/02/03 04:48:25;;;;;;;8.88;3.20;;;10.40;99.90;;;;;;5006726;28;20458;-82
2023/02/03 04:50:50;;;;;;;8.20;2.75;;;10.40;99.90;;;;;;5012943;28;20120;-85
2023/02/03 04:53:16;;;;;;;11.32;3.35;;;10.40;99.90;;;;;;5011194;28;20022;-82
2023/02/03 04:55:48;;;;;;;7.82;2.58;;;10.40;99.90;;;;;;5012183;28;20083;-81
2023/02/03 04:58:14;;;;;;;9.65;2.78;;;10.30;99.90;;;;;;5012896;28;20032;-83
2023/02/03 05:00:39;;;;;;;12.23;2.90;;;10.40;99.90;;;;;;5008254;28;20038;-82
2023/02/03 05:03:05;;;;;;;12.73;2.47;;;10.40;99.90;;;;;;5009740;28;20485;-81
2023/02/03 05:05:30;;;;;;;7.75;2.72;;;10.40;99.90;;;;;;5015703;28;20041;-81
2023/02/03 05:07:56;;;;;;;6.93;2.30;;;10.30;99.90;;;;;;5005201;28;20026;-82
2023/02/03 05:10:22;;;;;;;10.88;2.75;;;10.30;99.90;;;;;;5008590;28;20119;-76
2023/02/03 05:12:47;;;;;;;8.48;2.40;;;10.30;99.90;;;;;;5012928;28;20018;-83
2023/02/03 05:15:13;;;;;;;11.93;2.40;;;10.40;99.90;;;;;;5010452;28;20100;-83
2023/02/03 05:17:39;;;;;;;10.48;2.75;;;10.30;99.90;;;;;;5010332;28;20034;-78
2023/02/03 05:20:05;;;;;;;9.65;2.33;;;10.30;99.90;;;;;;5016552;28;20093;-83
2023/02/03 05:22:31;;;;;;;11.07;3.28;;;10.40;99.90;;;;;;5013802;28;20088;-83
2023/02/03 05:24:57;;;;;;;7.03;2.72;;;10.40;99.90;;;;;;5012637;28;20018;-82
2023/02/03 05:27:22;;;;;;;7.30;2.78;;;10.40;99.90;;;;;;5011329;28;20519;-81
2023/02/03 05:29:48;;;;;;;10.70;3.42;;;10.30;99.90;;;;;;5009870;28;20045;-82
2023/02/03 05:32:13;;;;;;;10.10;2.75;;;10.40;99.90;;;;;;5014726;28;20528;-76
2023/02/03 05:34:39;;;;;;;7.63;2.95;;;10.40;99.90;;;;;;5015392;28;20030;-83
2023/02/03 05:37:04;;;;;;;12.25;2.50;;;10.40;99.90;;;;;;5007997;28;20038;-81
2023/02/03 05:39:30;;;;;;;7.70;2.67;;;10.40;99.90;;;;;;5010477;28;20068;-82
2023/02/03 05:41:56;;;;;;;9.63;2.97;;;10.40;99.90;;;;;;5011533;28;20068;-78
2023/02/03 05:44:23;;;;;;;9.48;2.15;;;10.40;99.90;;;;;;5007676;28;20045;-81
2023/02/03 05:46:51;;;;;;;13.00;2.30;;;10.30;99.90;;;;;;5013428;28;20006;-80
2023/02/03 05:49:18;;;;;;;6.30;1.95;;;10.30;99.90;;;;;;5005427;28;20029;-81
2023/02/03 05:51:44;;;;;;;11.10;2.53;;;10.40;99.90;;;;;;5012762;28;20029;-83
2023/02/03 05:54:10;;;;;;;6.20;2.30;;;10.40;99.90;;;;;;5007552;28;20542;-82
2023/02/03 05:56:36;;;;;;;9.18;2.40;;;10.40;99.90;;;;;;5013898;28;20113;-84
2023/02/03 05:59:01;;;;;;;12.10;2.38;;;10.40;99.90;;;;;;5014042;28;20022;-82
2023/02/03 06:01:27;;;;;;;8.90;2.63;;;10.40;99.90;;;;;;5016540;28;20053;-83
2023/02/03 06:03:53;;;;;;;7.40;2.50;;;10.40;99.90;;;;;;5008318;28;20030;-83
2023/02/03 06:06:18;;;;;;;7.38;1.95;;;10.40;99.90;;;;;;5013847;28;20022;-83
2023/02/03 06:08:44;;;;;;;9.38;2.15;;;10.50;99.90;;;;;;5015557;28;20022;-80
2023/02/03 06:11:10;;;;;;;9.35;2.38;;;10.50;99.90;;;;;;5005670;28;20031;-83
2023/02/03 06:13:36;;;;;;;9.02;2.33;;;10.50;99.90;;;;;;5004510;28;20041;-81
2023/02/03 06:16:03;;;;;;;11.35;2.67;;;10.40;99.90;;;;;;5013609;28;20065;-83
2023/02/03 06:18:28;;;;;;;8.57;2.50;;;10.40;99.90;;;;;;5012700;28;20030;-84
2023/02/03 06:20:54;;;;;;;5.90;1.98;;;10.40;99.90;;;;;;5011834;28;20128;-82
2023/02/03 06:23:20;;;;;;;8.13;2.55;;;10.40;99.90;;;;;;5012980;28;20080;-81
2023/02/03 06:25:49;;;;;;;7.05;2.30;;;10.40;99.90;;;;;;5008917;28;20033;-83
2023/02/03 06:28:15;;;;;;;9.50;2.15;;;10.30;99.90;;;;;;5009176;28;20371;-83
2023/02/03 06:30:41;;;;;;;9.23;2.25;;;10.40;99.90;;;;;;5006249;28;20026;-83
2023/02/03 06:33:07;;;;;;;4.82;2.30;;;10.40;99.90;;;;;;5011497;28;20037;-85
2023/02/03 06:35:33;;;;;;;6.63;2.40;;;10.30;99.90;;;;;;5011858;28;20033;-82
2023/02/03 06:37:59;;;;;;;6.50;2.53;;;10.40;99.90;;;;;;5011652;28;20034;-84
2023/02/03 06:40:24;;;;;;;12.30;2.83;;;10.40;99.90;;;;;;5006515;28;20018;-81
2023/02/03 06:42:50;;;;;;;6.82;2.38;;;10.40;99.90;;;;;;5010935;28;20073;-81
2023/02/03 06:45:16;;;;;;;11.35;2.67;;;10.40;99.90;;;;;;5011300;28;20030;-82
2023/02/03 06:47:43;;;;;;;7.60;2.63;;;10.40;99.90;;;;;;5012030;28;20033;-83
2023/02/03 06:50:11;;;;;;;8.57;2.60;;;10.40;99.90;;;;;;5005182;28;20026;-81
2023/02/03 06:52:37;;;;;;;10.93;2.55;;;10.40;99.90;;;;;;5012179;28;20036;-80
2023/02/03 06:55:04;;;;;;;8.57;2.60;;;10.40;99.90;;;;;;5003150;28;20022;-81
2023/02/03 06:57:29;;;;;;;6.03;2.30;;;10.40;99.90;;;;;;5010995;28;20072;-84
2023/02/03 06:59:55;;;;;;;8.05;2.30;;;10.40;99.90;;;;;;5011851;28;20099;-83
2023/02/03 07:02:21;;;;;;;10.23;2.95;;;10.40;99.90;;;;;;5007933;28;20018;-83
2023/02/03 07:04:46;;;;;;;6.85;2.95;;;10.40;99.90;;;;;;5009897;28;20033;-85
2023/02/03 07:07:12;;;;;;;9.02;2.75;;;10.40;99.90;;;;;;5011774;28;20112;-79
2023/02/03 07:09:38;;;;;;;3.90;2.17;;;10.40;99.90;;;;;;5014273;28;20421;-83
2023/02/03 07:12:05;;;;;;;7.68;2.40;;;10.40;99.90;;;;;;5011806;28;20034;-82
2023/02/03 07:14:31;;;;;;;6.95;2.42;;;10.40;99.90;;;;;;5011392;28;20030;-84
2023/02/03 07:16:56;;;;;;;8.98;2.30;;;10.50;99.90;;;;;;5014221;28;20513;-85
2023/02/03 07:19:22;;;;;;;7.70;2.65;;;10.40;99.90;;;;;;5010158;28;20021;-82
2023/02/03 07:21:47;;;;;;;6.78;2.40;;;10.40;99.90;;;;;;5007841;28;20101;-84
2023/02/03 07:24:13;;;;;;;12.95;2.88;;;10.40;99.90;;;;;;5010108;28;20018;-84
2023/02/03 07:26:39;;;;;;;10.18;2.50;;;10.50;99.90;;;;;;5011632;28;20026;-83
2023/02/03 07:29:05;;;;;;;6.55;2.40;;;10.40;99.90;;;;;;5006257;28;20019;-83
2023/02/03 07:31:30;;;;;;;6.28;2.22;;;10.50;99.90;;;;;;5011101;28;20481;-84
2023/02/03 07:33:56;;;;;;;7.05;2.30;;;10.50;99.90;;;;;;5003923;28;20034;-84
2023/02/03 07:36:23;;;;;;;7.20;2.03;;;10.50;99.90;;;;;;5009284;28;20086;-81
2023/02/03 07:38:49;;;;;;;5.53;2.40;;;10.40;99.90;;;;;;5008091;28;20021;-83
2023/02/03 07:41:15;;;;;;;10.13;2.05;;;10.50;99.90;;;;;;5011557;28;20497;-80
2023/02/03 07:43:41;;;;;;;5.25;1.80;;;10.50;99.90;;;;;;5013154;28;20030;-82
2023/02/03 07:46:06;;;;;;;9.00;2.28;;;10.50;99.90;;;;;;5012905;28;20041;-82
2023/02/03 07:48:32;;;;;;;9.57;2.13;;;10.50;99.90;;;;;;5014216;28;20068;-82
2023/02/03 07:50:57;;;;;;;6.47;2.00;;;10.50;99.90;;;;;;5005036;28;20041;-76
2023/02/03 07:53:23;;;;;;;5.75;2.20;;;10.40;99.90;;;;;;5011013;28;20045;-82
2023/02/03 07:55:49;;;;;;;12.93;2.22;;;10.50;99.90;;;;;;5007939;28;20030;-81
2023/02/03 07:58:15;;;;;;;6.82;2.13;;;10.40;99.90;;;;;;5007520;28;20038;-79
2023/02/03 08:00:41;;;;;;;6.25;2.10;;;10.50;99.90;;;;;;5010026;28;20033;-78
2023/02/03 08:03:07;;;;;;;6.28;2.42;;;10.50;99.90;;;;;;5011448;28;20026;-83
2023/02/03 08:05:33;;;;;;;10.65;2.47;;;10.60;99.90;;;;;;5016688;28;20022;-83
2023/02/03 08:07:59;;;;;;;5.47;1.98;;;10.50;99.90;;;;;;5011151;28;20022;-84
2023/02/03 08:10:25;;;;;;;7.68;2.72;;;10.50;99.90;;;;;;5014289;28;20033;-81
2023/02/03 08:12:54;;;;;;;7.45;2.40;;;10.50;99.90;;;;;;5011190;28;20030;-82
2023/02/03 08:15:20;;;;;;;6.35;2.35;;;10.60;99.90;;;;;;5016322;28;20023;-80
2023/02/03 08:17:50;;;;;;;7.63;2.20;;;10.60;99.90;;;;;;5013932;28;20023;-82
2023/02/03 08:20:17;;;;;;;8.38;2.28;;;10.60;99.90;;;;;;5015495;28;20425;-79
2023/02/03 08:22:43;;;;;;;8.80;2.55;;;10.60;99.90;;;;;;5019009;28;20021;-81
2023/02/03 08:25:09;;;;;;;8.18;2.50;;;10.60;99.90;;;;;;5015881;28;20030;-79
2023/02/03 08:27:36;;;;;;;9.45;2.38;;;10.60;99.90;;;;;;5011435;28;20510;-84
2023/02/03 08:30:02;;;;;;;3.95;2.30;;;10.60;99.90;;;;;;5009028;28;20368;-83
2023/02/03 08:32:28;;;;;;;7.05;2.47;;;10.60;99.90;;;;;;5017843;28;20386;-82
2023/02/03 08:34:53;;;;;;;7.50;2.10;;;10.60;99.90;;;;;;5011251;28;20033;-84
2023/02/03 08:37:25;;;;;;;9.70;2.70;;;10.60;99.90;;;;;;5015949;28;20034;-79
2023/02/03 08:39:51;;;;;;;5.68;2.35;;;10.60;99.90;;;;;;5017731;28;20013;-82
2023/02/03 08:42:17;;;;;;;9.43;2.28;;;10.60;99.90;;;;;;5017126;28;20036;-72
2023/02/03 08:44:43;;;;;;;8.18;3.00;;;10.60;99.90;;;;;;5011311;28;20025;-83
2023/02/03 08:47:10;;;;;;;5.78;2.88;;;10.60;99.90;;;;;;5015434;28;20026;-83
2023/02/03 08:49:38;;;;;;;7.32;3.15;;;10.60;99.90;;;;;;5013087;28;20098;-82
2023/02/03 08:52:05;;;;;;;6.80;3.65;;;10.70;99.90;;;;;;5012663;28;20485;-82
2023/02/03 08:54:31;;;;;;;9.10;3.60;;;10.70;99.90;;;;;;5014469;28;20138;-83
2023/02/03 08:56:57;;;;;;;7.72;3.40;;;10.70;99.90;;;;;;5017789;28;20423;-77
2023/02/03 08:59:23;;;;;;;10.70;3.33;;;10.70;99.90;;;;;;5013046;28;20141;-82
2023/02/03 09:01:49;;;;;;;9.80;4.45;;;10.70;99.90;;;;;;5017991;28;20072;-78
2023/02/03 09:04:23;;;;;;;7.00;3.92;;;10.70;99.90;;;;;;5015484;28;20029;-83
2023/02/03 09:06:50;;;;;;;5.93;4.43;;;10.70;99.90;;;;;;5008009;28;20501;-84
2023/02/03 09:09:16;;;;;;;9.52;3.70;;;10.70;99.90;;;;;;5012207;28;20044;-82
2023/02/03 09:11:42;;;;;;;11.77;4.35;;;10.70;99.90;;;;;;5015710;28;20030;-81
2023/02/03 09:14:09;;;;;;;7.53;3.58;;;10.70;99.90;;;;;;5014975;28;20030;-80
2023/02/03 09:16:35;;;;;;;8.27;3.70;;;10.80;99.90;;;;;;5011830;28;20042;-80
2023/02/03 09:19:01;;;;;;;7.50;4.10;;;10.80;99.90;;;;;;5013113;28;20015;-81
2023/02/03 09:21:26;;;;;;;7.95;4.07;;;10.80;99.90;;;;;;5009644;28;20132;-74
2023/02/03 09:23:52;;;;;;;9.50;4.00;;;10.70;99.90;;;;;;5011794;28;20022;-73
2023/02/03 09:26:18;;;;;;;7.13;4.22;;;10.70;99.90;;;;;;5012971;28;20022;-74
2023/02/03 09:28:43;;;;;;;9.75;4.90;;;10.80;99.90;;;;;;5008130;28;20030;-73
2023/02/03 09:31:11;;;;;;;10.52;3.97;;;10.80;99.90;;;;;;5014070;28;20114;-74
2023/02/03 09:33:38;;;;;;;7.88;5.20;;;10.80;99.90;;;;;;5013754;28;20033;-74
2023/02/03 09:36:07;;;;;;;7.78;4.80;;;10.80;99.90;;;;;;5007873;28;20026;-81
2023/02/03 09:38:33;;;;;;;8.88;4.45;;;10.70;99.90;;;;;;5013804;28;20033;-81
2023/02/03 09:41:12;;;;;;;9.60;4.80;;;10.70;99.90;;;;;;5007288;28;20018;-80
2023/02/03 09:44:04;;;;;;;10.63;5.13;;;10.70;99.90;;;;;;5011005;28;20038;-78
2023/02/03 09:46:36;;;;;;;9.50;5.03;;;10.80;99.90;;;;;;5006403;28;20104;-79
2023/02/03 09:49:07;;;;;;;;;;;10.80;99.90;;;;;;5011007;28;20106;-81
2023/02/03 09:51:45;;;;;;;7.95;4.78;;;10.80;99.90;;;;;;5006348;28;20393;-80
2023/02/03 09:54:33;;;;;;;12.55;4.60;;;10.90;99.90;;;;;;5011641;28;20391;-81
2023/02/03 09:57:03;;;;;;;10.40;4.85;;;10.90;99.90;;;;;;5012274;28;20487;-81
2023/02/03 09:59:30;;;;;;;8.73;4.70;;;10.80;99.90;;;;;;5012198;28;20029;-80
2023/02/03 10:02:46;;;;;;;9.07;3.97;;;10.80;99.90;;;;;;5014296;28;20037;-82
2023/02/03 10:05:46;;;;;;;12.57;4.15;;;10.80;99.90;;;;;;4992816;28;20430;-79
2023/02/03 10:08:42;;;;;;;11.18;4.30;;;10.90;99.90;;;;;;4990319;28;20089;-79
2023/02/03 10:11:19;;;;;;;8.52;4.10;;;10.90;99.90;;;;;;5014845;28;20035;-81
2023/02/03 10:14:00;;;;;;;10.38;3.60;;;11.00;99.90;;;;;;5011360;28;20068;-77
2023/02/03 10:16:48;;;;;;;9.80;3.13;;;11.00;99.90;;;;;;5011730;28;20045;-80
2023/02/03 10:19:22;;;;;;;15.27;3.63;;;11.10;99.90;;;;;;5008304;28;20041;-80
2023/02/03 10:21:59;;;;;;;6.72;3.05;;;11.00;99.90;;;;;;5001265;28;20022;-80
2023/02/03 10:24:27;;;;;;;16.13;3.88;;;11.10;99.90;;;;;;5012261;28;20030;-81
2023/02/03 10:26:53;;;;;;;8.95;2.95;;;11.10;99.90;;;;;;5011281;28;20022;-79
2023/02/03 10:29:31;;;;;;;7.88;2.50;;;11.10;99.90;;;;;;5002613;28;20080;-81
2023/02/03 10:31:57;;;;;;;4.90;2.70;;;11.10;99.90;;;;;;5011593;28;20482;-81
2023/02/03 10:34:24;;;;;;;10.18;2.80;;;11.20;99.90;;;;;;5011892;28;20112;-81
2023/02/03 10:36:49;;;;;;;11.35;3.00;;;11.20;99.90;;;;;;5005456;28;20125;-82
2023/02/03 10:39:27;;;;;;;10.38;3.17;;;11.20;99.90;;;;;;5012731;28;20113;-80
2023/02/03 10:41:53;;;;;;;5.35;2.35;;;11.20;99.90;;;;;;5012888;28;20018;-81
2023/02/03 10:44:19;;;;;;;6.35;2.35;;;11.30;99.90;;;;;;5015018;28;20022;-82
2023/02/03 10:46:44;;;;;;;8.05;2.50;;;11.40;99.90;;;;;;5011456;28;20034;-81
2023/02/03 10:49:12;;;;;;;10.18;3.13;;;11.30;99.90;;;;;;5013156;28;20375;-76
2023/02/03 10:51:50;;;;;;;9.13;2.50;;;11.20;99.90;;;;;;5012390;28;20108;-78
2023/02/03 10:54:33;;;;;;;7.35;2.50;;;11.30;99.90;;;;;;5006922;28;20054;-68
2023/02/03 10:57:05;;;;;;;8.80;2.85;;;11.40;99.90;;;;;;5009034;28;20034;-68
2023/02/03 10:59:34;;;;;;;9.38;2.50;;;11.40;99.90;;;;;;5014938;28;20032;-70
2023/02/03 11:02:07;;;;;;;8.82;2.85;;;11.40;99.90;;;;;;5011887;28;20076;-69
2023/02/03 11:04:33;;;;;;;6.88;2.60;;;11.50;99.90;;;;;;5011260;28;20034;-69
2023/02/03 11:07:05;;;;;;;10.63;3.08;;;11.60;99.90;;;;;;5011644;28;20034;-68
2023/02/03 11:09:32;;;;;;;7.23;2.57;;;11.50;99.90;;;;;;5002029;28;20104;-69
2023/02/03 11:12:17;;;;;;;7.82;2.58;;;11.60;99.90;;;;;;4982312;28;20304;-69
2023/02/03 11:14:51;;;;;;;9.48;2.00;;;11.50;99.90;;;;;;5003475;28;20040;-68
2023/02/03 11:17:22;;;;;;;9.48;2.38;;;11.60;99.90;;;;;;5000725;28;20143;-69
2023/02/03 11:19:52;;;;;;;8.43;2.80;;;11.60;99.90;;;;;;5006292;28;20049;-69
2023/02/03 11:22:37;;;;;;;6.50;2.63;;;11.60;99.90;;;;;;4998534;28;20466;-77
2023/02/03 11:25:16;;;;;;;4.10;2.75;;;11.70;99.90;;;;;;5005254;28;20022;-69
2023/02/03 11:27:42;;;;;;;11.35;2.90;;;11.60;99.90;;;;;;5005161;28;21013;-71
2023/02/03 11:30:16;;;;;;;8.48;2.42;;;11.60;99.90;;;;;;5004150;28;20022;-71
2023/02/03 11:32:44;;;;;;;8.15;2.80;;;11.70;99.90;;;;;;5003756;28;20388;-68
2023/02/03 11:35:19;;;;;;;10.93;2.92;;;11.60;99.90;;;;;;5005106;28;20037;-69
2023/02/03 11:37:51;;;;;;;9.57;2.65;;;11.60;99.90;;;;;;5005236;28;20056;-68
2023/02/03 11:40:20;;;;;;;13.25;3.00;;;11.60;99.90;;;;;;5003888;28;20149;-69
2023/02/03 11:43:15;;;;;;;9.98;2.83;;;11.60;99.90;;;;;;5004410;28;20038;-69
2023/02/03 11:45:48;;;;;;;9.73;2.72;;;11.60;99.90;;;;;;5006152;28;20018;-69
2023/02/03 11:48:29;;;;;;;11.18;2.63;;;11.70;99.90;;;;;;5007177;28;20108;-69
2023/02/03 11:51:13;;;;;;;11.38;2.88;;;11.70;99.90;;;;;;5006195;28;20075;-69
2023/02/03 11:54:03;;;;;;;9.35;2.55;;;11.80;99.90;;;;;;5004897;28;20153;-69
2023/02/03 11:56:45;;;;;;;8.93;2.55;;;11.80;99.90;;;;;;5005773;28;20112;-69
2023/02/03 11:59:28;;;;;;;8.82;2.22;;;11.70;99.90;;;;;;4996255;28;20098;-69
2023/02/03 12:02:19;;;;;;;6.63;2.53;;;11.80;99.90;;;;;;5003250;28;20107;-69
2023/02/03 12:05:08;;;;;;;14.52;2.60;;;11.90;99.90;;;;;;5006508;28;20097;-69
2023/02/03 12:07:37;;;;;;;9.05;2.75;;;11.90;99.90;;;;;;5005117;28;20044;-69
2023/02/03 12:10:17;;;;;;;5.75;2.20;;;11.90;99.90;;;;;;5001992;28;20100;-72
2023/02/03 12:12:45;;;;;;;10.07;3.00;;;11.80;99.90;;;;;;5003774;28;20038;-70
2023/02/03 12:15:26;;;;;;;8.32;2.40;;;11.80;99.90;;;;;;5005164;28;22005;-69
2023/02/03 12:18:16;;;;;;;9.70;2.40;;;11.80;99.90;;;;;;5008268;28;20478;-68
2023/02/03 12:21:00;;;;;;;10.10;3.30;;;11.80;99.90;;;;;;5004855;28;20022;-68
2023/02/03 12:23:50;;;;;;;8.82;2.65;;;11.80;99.90;;;;;;5004432;28;20109;-68
2023/02/03 12:26:19;;;;;;;9.57;2.45;;;11.90;99.90;;;;;;5006157;28;20483;-68
2023/02/03 12:29:05;;;;;;;9.63;3.45;;;11.90;99.90;;;;;;5004902;28;20026;-67
2023/02/03 12:31:37;;;;;;;9.30;2.88;;;11.90;99.90;;;;;;5005468;28;20024;-68
2023/02/03 12:34:14;;;;;;;7.85;3.58;;;11.90;99.90;;;;;;5005142;28;20042;-68
2023/02/03 12:36:46;;;;;;;8.20;2.70;;;11.90;99.90;;;;;;4997482;28;20155;-68
2023/02/03 12:39:18;;;;;;;10.15;3.17;;;11.90;99.90;;;;;;5004164;28;20049;-68
2023/02/03 12:42:10;;;;;;;11.20;3.15;;;11.90;99.90;;;;;;5003142;28;20018;-68
2023/02/03 12:44:49;;;;;;;11.05;2.30;;;11.80;99.90;;;;;;5005447;28;20034;-68
2023/02/03 12:47:30;;;;;;;40.00;5.05;;;11.90;99.90;;;;;;4995856;28;20026;-68
2023/02/03 12:50:01;;;;;;;11.55;3.05;;;11.90;99.90;;;;;;5008267;28;20021;-67
2023/02/03 12:53:04;;;;;;;17.58;3.20;;;11.80;99.90;;;;;;5007846;28;20103;-68
2023/02/03 12:55:41;;;;;;;10.05;3.05;;;11.80;99.90;;;;;;4978575;28;20029;-67
2023/02/03 12:58:13;;;;;;;15.10;3.75;;;11.90;99.90;;;;;;5009591;28;20029;-68
2023/02/03 13:01:07;;;;;;;10.73;2.80;;;11.80;99.90;;;;;;5008972;28;20109;-68